Time;durP1;ratioP1;P1;durP2;ratioP2;P2;SDS_P1;SDS_P2;PMS_P1;PMS_P2;Temp;Humidity;BMP_temperature;BMP_pressure;BME280_temperature;BME280_humidity;BME280_pressure;Samples;Min_cycle;Max_cycle;Signal;HPM_P1;HPM_P2
2023/08/29 00:01:04;;;;;;;0.20;0.00;;;;;;;17.13;100.00;99115.84;5063272;28;20545;-85
2023/08/29 00:03:31;;;;;;;0.43;0.00;;;;;;;17.16;100.00;99109.34;5060252;28;20033;-85
2023/08/29 00:06:01;;;;;;;0.00;0.00;;;;;;;17.28;100.00;99104.16;5057521;28;20041;-85
2023/08/29 00:08:26;;;;;;;0.13;0.00;;;;;;;17.32;100.00;99100.84;5054993;28;20080;-85
2023/08/29 00:10:56;;;;;;;0.00;0.00;;;;;;;17.37;100.00;99101.00;5051909;28;20033;-85
2023/08/29 00:13:23;;;;;;;0.00;0.00;;;;;;;17.36;100.00;99109.13;5053584;28;20040;-85
2023/08/29 00:15:48;;;;;;;0.00;0.00;;;;;;;17.35;100.00;99110.94;5057711;28;20032;-85
2023/08/29 00:18:13;;;;;;;0.00;0.00;;;;;;;17.33;100.00;99110.38;5053329;28;20501;-85
2023/08/29 00:20:39;;;;;;;0.00;0.00;;;;;;;17.30;100.00;99113.44;5053523;28;20571;-85
2023/08/29 00:23:04;;;;;;;0.00;0.00;;;;;;;17.29;100.00;99103.94;5052120;28;20070;-85
2023/08/29 00:25:30;;;;;;;0.00;0.00;;;;;;;17.27;100.00;99115.69;5053082;28;20051;-85
2023/08/29 00:27:55;;;;;;;0.00;0.00;;;;;;;17.13;100.00;99105.31;5058600;28;20032;-85
2023/08/29 00:30:21;;;;;;;0.00;0.00;;;;;;;17.02;100.00;99094.72;5078764;28;20460;-85
2023/08/29 00:32:46;;;;;;;0.00;0.00;;;;;;;17.02;100.00;99087.63;5070093;28;20048;-86
2023/08/29 00:35:11;;;;;;;0.10;0.00;;;;;;;17.00;100.00;99089.69;5059626;28;21245;-85
2023/08/29 00:37:37;;;;;;;0.00;0.00;;;;;;;16.97;100.00;99091.97;5056572;28;20048;-85
2023/08/29 00:40:03;;;;;;;0.00;0.00;;;;;;;17.02;100.00;99089.44;5073416;28;20573;-85
2023/08/29 00:42:29;;;;;;;0.00;0.00;;;;;;;17.08;100.00;99094.66;5061804;28;20100;-86
2023/08/29 00:44:54;;;;;;;0.00;0.00;;;;;;;17.08;100.00;99099.09;5059402;28;20515;-85
2023/08/29 00:47:20;;;;;;;0.00;0.00;;;;;;;17.10;100.00;99099.69;5075841;28;20032;-85
2023/08/29 00:49:45;;;;;;;0.00;0.00;;;;;;;17.11;100.00;99103.94;5053923;28;20059;-85
2023/08/29 00:52:11;;;;;;;0.00;0.00;;;;;;;17.09;100.00;99108.59;5057551;28;20057;-85
2023/08/29 00:54:36;;;;;;;0.00;0.00;;;;;;;17.00;100.00;99109.94;5056778;28;20113;-85
2023/08/29 00:57:02;;;;;;;0.17;0.00;;;;;;;16.92;100.00;99113.66;5056020;28;20043;-85
2023/08/29 00:59:28;;;;;;;0.00;0.00;;;;;;;16.69;100.00;99103.75;5083007;28;20028;-85
2023/08/29 01:01:53;;;;;;;0.00;0.00;;;;;;;16.52;100.00;99102.69;5057823;28;20533;-85
2023/08/29 01:04:19;;;;;;;0.10;0.00;;;;;;;16.47;100.00;99107.78;5057586;28;20043;-85
2023/08/29 01:06:45;;;;;;;0.03;0.00;;;;;;;16.43;100.00;99098.72;5058663;28;20044;-85
2023/08/29 01:09:11;;;;;;;0.00;0.00;;;;;;;16.43;100.00;99103.97;5074001;28;20040;-85
2023/08/29 01:11:56;;;;;;;0.00;0.00;;;;;;;16.41;100.00;99096.31;5061160;28;20793;-85
2023/08/29 01:14:43;;;;;;;0.10;0.00;;;;;;;16.43;100.00;99096.09;5056741;28;20024;-86
2023/08/29 01:17:16;;;;;;;0.00;0.00;;;;;;;16.50;100.00;99091.59;5073608;28;20040;-85
2023/08/29 01:19:48;;;;;;;0.00;0.00;;;;;;;16.40;100.00;99083.38;5054884;28;20041;-85
2023/08/29 01:22:29;;;;;;;0.00;0.00;;;;;;;16.52;100.00;99087.72;5057024;28;20045;-85
2023/08/29 01:25:16;;;;;;;0.00;0.00;;;;;;;16.63;100.00;99090.63;5056730;28;20043;-85
2023/08/29 01:27:42;;;;;;;0.22;0.00;;;;;;;16.59;100.00;99093.69;5055828;28;20043;-85
2023/08/29 01:30:08;;;;;;;0.00;0.00;;;;;;;16.62;100.00;99086.41;5054535;28;20043;-85
2023/08/29 01:32:35;;;;;;;0.00;0.00;;;;;;;16.61;100.00;99096.13;5057620;28;20030;-85
2023/08/29 01:35:01;;;;;;;0.03;0.00;;;;;;;16.59;100.00;99101.59;5055731;28;20109;-85
2023/08/29 01:37:26;;;;;;;0.00;0.00;;;;;;;16.64;100.00;99111.50;5056305;28;20489;-85
2023/08/29 01:39:52;;;;;;;0.00;0.00;;;;;;;16.62;100.00;99112.69;5056422;28;20089;-85
2023/08/29 01:42:17;;;;;;;0.00;0.00;;;;;;;16.57;100.00;99111.50;5058713;28;20035;-85
2023/08/29 01:44:43;;;;;;;0.00;0.00;;;;;;;16.40;100.00;99114.91;5078866;28;20072;-85
2023/08/29 01:47:08;;;;;;;0.20;0.00;;;;;;;16.45;100.00;99107.19;5054031;28;20035;-85
2023/08/29 01:49:35;;;;;;;0.00;0.00;;;;;;;16.43;100.00;99106.59;5059748;28;20032;-85
2023/08/29 01:52:00;;;;;;;0.00;0.00;;;;;;;16.49;100.00;99103.13;5056326;28;20071;-85
2023/08/29 01:54:26;;;;;;;0.00;0.00;;;;;;;16.23;100.00;99112.00;5069902;28;20119;-85
2023/08/29 01:56:54;;;;;;;0.05;0.00;;;;;;;16.07;100.00;99112.56;5058009;28;20024;-85
2023/08/29 01:59:21;;;;;;;0.00;0.00;;;;;;;16.04;100.00;99111.16;5062511;28;20098;-85
2023/08/29 02:01:47;;;;;;;0.00;0.00;;;;;;;16.08;100.00;99109.69;5059296;28;20115;-85
2023/08/29 02:04:12;;;;;;;0.30;0.00;;;;;;;16.23;100.00;99104.94;5059518;28;20032;-85
2023/08/29 02:06:37;;;;;;;0.10;0.00;;;;;;;16.12;100.00;99107.44;5061854;28;20040;-85
2023/08/29 02:09:03;;;;;;;0.00;0.00;;;;;;;16.08;100.00;99096.53;5069906;28;20036;-85
2023/08/29 02:11:28;;;;;;;0.10;0.00;;;;;;;16.18;100.00;99099.50;5055750;28;20046;-85
2023/08/29 02:13:54;;;;;;;0.00;0.00;;;;;;;16.12;100.00;99096.94;5061322;28;20037;-85
2023/08/29 02:16:19;;;;;;;0.00;0.00;;;;;;;16.09;100.00;99090.28;5057604;28;20029;-85
2023/08/29 02:18:45;;;;;;;0.00;0.00;;;;;;;16.15;100.00;99092.06;5062560;28;20041;-84
2023/08/29 02:21:10;;;;;;;0.00;0.00;;;;;;;16.29;100.00;99086.69;5053398;28;20032;-85
2023/08/29 02:23:36;;;;;;;0.00;0.00;;;;;;;16.28;100.00;99080.63;5058187;28;20846;-85
2023/08/29 02:26:03;;;;;;;0.00;0.00;;;;;;;16.30;100.00;99067.28;5052277;28;20037;-85
2023/08/29 02:28:29;;;;;;;0.10;0.00;;;;;;;16.26;100.00;99062.47;5072473;28;20121;-85
2023/08/29 02:30:54;;;;;;;0.00;0.00;;;;;;;16.29;100.00;99066.47;5054211;28;20032;-84
2023/08/29 02:33:20;;;;;;;0.20;0.00;;;;;;;16.19;100.00;99066.97;5057956;28;20059;-85
2023/08/29 02:35:45;;;;;;;0.00;0.00;;;;;;;16.21;100.00;99070.19;5058171;28;20060;-85
2023/08/29 02:38:11;;;;;;;0.00;0.00;;;;;;;16.24;100.00;99068.94;5051914;28;20025;-85
2023/08/29 02:40:36;;;;;;;0.08;0.00;;;;;;;16.17;100.00;99068.19;5068646;28;20028;-84
2023/08/29 02:43:02;;;;;;;0.00;0.00;;;;;;;16.10;100.00;99077.94;5087999;28;20393;-85
2023/08/29 02:45:27;;;;;;;0.00;0.00;;;;;;;15.95;100.00;99080.91;5059515;28;20029;-84
2023/08/29 02:47:52;;;;;;;0.10;0.00;;;;;;;15.93;100.00;99064.53;5066171;28;20044;-84
2023/08/29 02:50:18;;;;;;;0.10;0.00;;;;;;;15.92;100.00;99061.13;5056134;28;20036;-85
2023/08/29 02:52:43;;;;;;;0.00;0.00;;;;;;;15.88;100.00;99061.75;5065421;28;20051;-85
2023/08/29 02:55:09;;;;;;;0.10;0.00;;;;;;;15.94;100.00;99066.16;5053779;28;20564;-84
2023/08/29 02:57:34;;;;;;;0.20;0.00;;;;;;;16.00;100.00;99056.63;5067123;28;20201;-85
2023/08/29 03:00:00;;;;;;;0.00;0.00;;;;;;;16.03;100.00;99061.44;5064938;28;20029;-85
2023/08/29 03:02:25;;;;;;;0.00;0.00;;;;;;;16.01;100.00;99058.22;5052912;28;20056;-84
2023/08/29 03:04:50;;;;;;;0.00;0.00;;;;;;;16.01;100.00;99064.28;5058739;28;20097;-85
2023/08/29 03:07:16;;;;;;;0.00;0.00;;;;;;;15.91;100.00;99058.69;5061889;28;20033;-85
2023/08/29 03:09:41;;;;;;;0.00;0.00;;;;;;;15.88;100.00;99061.75;5064240;28;20060;-84
2023/08/29 03:12:07;;;;;;;0.05;0.00;;;;;;;15.89;100.00;99056.28;5052541;28;20047;-85
2023/08/29 03:14:32;;;;;;;0.00;0.00;;;;;;;15.88;100.00;99049.41;5055790;28;20044;-85
2023/08/29 03:16:58;;;;;;;0.00;0.00;;;;;;;15.86;100.00;99050.66;5052062;28;20044;-85
2023/08/29 03:19:23;;;;;;;0.00;0.00;;;;;;;15.82;100.00;99041.59;5056435;28;20030;-85
2023/08/29 03:21:48;;;;;;;0.00;0.00;;;;;;;15.77;100.00;99036.16;5054457;28;20051;-85
2023/08/29 03:24:14;;;;;;;0.00;0.00;;;;;;;15.72;100.00;99031.53;5051093;28;20054;-85
2023/08/29 03:26:39;;;;;;;0.00;0.00;;;;;;;15.80;100.00;99031.28;5052345;28;20564;-85
2023/08/29 03:29:05;;;;;;;0.10;0.00;;;;;;;15.84;100.00;99021.16;5053272;28;20173;-84
2023/08/29 03:31:30;;;;;;;0.00;0.00;;;;;;;15.83;100.00;99033.50;5053669;28;20512;-84
2023/08/29 03:33:56;;;;;;;0.00;0.00;;;;;;;15.89;100.00;99031.84;5060001;28;20053;-85
2023/08/29 03:36:21;;;;;;;0.00;0.00;;;;;;;15.91;100.00;99021.94;5075703;28;20039;-85
2023/08/29 03:38:46;;;;;;;0.10;0.00;;;;;;;15.89;100.00;99030.03;5058781;28;20097;-84
2023/08/29 03:41:12;;;;;;;0.00;0.00;;;;;;;15.83;100.00;99024.81;5054464;28;20052;-85
2023/08/29 03:43:37;;;;;;;0.20;0.00;;;;;;;15.85;100.00;99030.66;5064786;28;20025;-85
2023/08/29 03:46:07;;;;;;;0.00;0.00;;;;;;;15.85;100.00;99020.16;5073282;28;20032;-85
2023/08/29 03:48:35;;;;;;;0.00;0.00;;;;;;;15.84;100.00;99021.16;5082867;28;20025;-85
2023/08/29 03:51:05;;;;;;;0.00;0.00;;;;;;;15.83;100.00;99016.94;5096052;28;23267;-85
2023/08/29 03:53:31;;;;;;;0.00;0.00;;;;;;;15.77;100.00;99015.16;5081700;28;20048;-84
2023/08/29 03:56:00;;;;;;;0.00;0.00;;;;;;;15.79;100.00;99027.06;5081803;28;20043;-85
2023/08/29 03:58:25;;;;;;;0.00;0.00;;;;;;;15.83;100.00;99030.06;5082915;28;20052;-83
2023/08/29 04:00:53;;;;;;;0.00;0.00;;;;;;;15.88;100.00;99038.91;5089125;28;20041;-86
2023/08/29 04:03:18;;;;;;;0.00;0.00;;;;;;;15.79;100.00;99029.69;5085713;28;20031;-87
2023/08/29 04:05:46;;;;;;;0.00;0.00;;;;;;;15.66;100.00;99032.38;5091464;28;20033;-87
2023/08/29 04:08:11;;;;;;;0.00;0.00;;;;;;;15.62;100.00;99033.81;5093839;28;20025;-86
2023/08/29 04:10:40;;;;;;;0.00;0.00;;;;;;;15.45;100.00;99024.84;5093098;28;20104;-87
2023/08/29 04:13:07;;;;;;;0.00;0.00;;;;;;;15.32;100.00;99028.31;5093680;28;20050;-87
2023/08/29 04:15:33;;;;;;;0.00;0.00;;;;;;;15.39;100.00;99025.66;5098468;28;20024;-88
2023/08/29 04:18:00;;;;;;;0.10;0.00;;;;;;;15.42;100.00;99018.19;5088158;28;20017;-87
2023/08/29 04:20:25;;;;;;;0.00;0.00;;;;;;;15.48;100.00;99025.22;5113532;28;20129;-87
2023/08/29 04:22:51;;;;;;;0.00;0.00;;;;;;;15.52;100.00;99036.09;5089201;28;20027;-87
2023/08/29 04:25:17;;;;;;;0.00;0.00;;;;;;;15.45;100.00;99036.13;5112546;28;20028;-87
2023/08/29 04:27:43;;;;;;;0.00;0.00;;;;;;;15.48;100.00;99033.09;5096648;28;20028;-87
2023/08/29 04:30:09;;;;;;;0.00;0.00;;;;;;;15.47;100.00;99039.34;5095421;28;20017;-87
2023/08/29 04:32:36;;;;;;;0.00;0.00;;;;;;;15.35;100.00;99030.53;5092310;28;20036;-88
2023/08/29 04:35:04;;;;;;;0.00;0.00;;;;;;;15.38;100.00;99037.19;5096715;28;20027;-88
2023/08/29 04:37:30;;;;;;;0.00;0.00;;;;;;;15.32;100.00;99049.31;5090088;28;20076;-87
2023/08/29 04:39:55;;;;;;;0.00;0.00;;;;;;;15.31;100.00;99052.16;5088310;28;20052;-87
2023/08/29 04:42:21;;;;;;;0.00;0.00;;;;;;;15.41;100.00;99053.31;5093736;28;20012;-87
2023/08/29 04:44:46;;;;;;;0.00;0.00;;;;;;;15.33;100.00;99060.63;5095673;28;20032;-88
2023/08/29 04:47:12;;;;;;;0.20;0.00;;;;;;;15.35;100.00;99056.78;5092064;28;20044;-88
2023/08/29 04:49:37;;;;;;;0.00;0.00;;;;;;;15.49;100.00;99062.78;5096896;28;20016;-88
2023/08/29 04:52:03;;;;;;;0.00;0.00;;;;;;;15.56;100.00;99064.38;5074773;28;20119;-88
2023/08/29 04:54:29;;;;;;;0.15;0.00;;;;;;;15.56;100.00;99061.75;5065068;28;20562;-88
2023/08/29 04:56:55;;;;;;;0.00;0.00;;;;;;;15.66;100.00;99056.03;5060854;28;20493;-87
2023/08/29 04:59:20;;;;;;;0.00;0.00;;;;;;;15.72;100.00;99060.44;5072945;28;20027;-87
2023/08/29 05:01:45;;;;;;;0.00;0.00;;;;;;;15.75;100.00;99067.06;5070359;28;20037;-86
2023/08/29 05:04:12;;;;;;;0.63;0.00;;;;;;;15.83;100.00;99078.13;5069265;28;20039;-86
2023/08/29 05:06:38;;;;;;;0.00;0.00;;;;;;;15.84;100.00;99077.13;5073922;28;20497;-86
2023/08/29 05:09:06;;;;;;;0.00;0.00;;;;;;;15.58;100.00;99077.28;5063752;28;20147;-87
2023/08/29 05:11:32;;;;;;;0.00;0.00;;;;;;;15.62;100.00;99069.78;5080735;28;20032;-87
2023/08/29 05:13:58;;;;;;;0.00;0.00;;;;;;;15.75;100.00;99072.34;5054781;28;20038;-87
2023/08/29 05:16:23;;;;;;;0.00;0.00;;;;;;;15.85;100.00;99070.06;5055976;28;20051;-86
2023/08/29 05:18:49;;;;;;;0.00;0.00;;;;;;;15.88;100.00;99073.06;5068768;28;20055;-87
2023/08/29 05:21:14;;;;;;;0.00;0.00;;;;;;;15.89;100.00;99066.78;5054863;28;20136;-87
2023/08/29 05:23:39;;;;;;;0.00;0.00;;;;;;;15.93;100.00;99061.91;5073037;28;20024;-86
2023/08/29 05:26:05;;;;;;;0.20;0.10;;;;;;;16.07;100.00;99063.41;5051368;28;20481;-86
2023/08/29 05:28:31;;;;;;;0.00;0.00;;;;;;;16.11;100.00;99061.97;5058291;28;20568;-87
2023/08/29 05:30:56;;;;;;;0.03;0.00;;;;;;;16.19;100.00;99066.16;5067663;28;20044;-87
2023/08/29 05:33:21;;;;;;;0.05;0.00;;;;;;;16.24;100.00;99063.69;5070018;28;20047;-86
2023/08/29 05:35:47;;;;;;;0.10;0.00;;;;;;;16.14;100.00;99058.09;5059217;28;20150;-86
2023/08/29 05:38:12;;;;;;;0.00;0.00;;;;;;;16.20;100.00;99065.13;5066736;28;20566;-87
2023/08/29 05:40:38;;;;;;;0.05;0.00;;;;;;;16.14;100.00;99058.91;5058635;28;20389;-87
2023/08/29 05:43:03;;;;;;;0.00;0.00;;;;;;;16.27;100.00;99063.25;5062071;28;20020;-86
2023/08/29 05:45:29;;;;;;;0.00;0.00;;;;;;;16.34;100.00;99063.22;5053579;28;20040;-87
2023/08/29 05:47:54;;;;;;;0.00;0.00;;;;;;;16.31;100.00;99061.81;5053110;28;20131;-87
2023/08/29 05:50:20;;;;;;;0.00;0.00;;;;;;;16.34;100.00;99058.75;5050862;28;20036;-87
2023/08/29 05:52:45;;;;;;;0.03;0.00;;;;;;;16.47;100.00;99060.47;5052436;28;20581;-87
2023/08/29 05:55:11;;;;;;;0.73;0.00;;;;;;;16.58;100.00;99060.53;5071693;28;20032;-87
2023/08/29 05:57:36;;;;;;;0.57;0.00;;;;;;;16.64;100.00;99047.53;5069958;28;20040;-86
2023/08/29 06:00:05;;;;;;;0.00;0.00;;;;;;;16.71;100.00;99050.94;5061347;28;20047;-86
2023/08/29 06:02:32;;;;;;;0.00;0.00;;;;;;;16.80;100.00;99047.81;5056731;28;20032;-86
2023/08/29 06:04:58;;;;;;;0.17;0.00;;;;;;;16.88;100.00;99051.97;5066695;28;20033;-86
2023/08/29 06:07:24;;;;;;;0.22;0.00;;;;;;;16.86;100.00;99051.41;5056048;28;20077;-86
2023/08/29 06:09:50;;;;;;;0.25;0.00;;;;;;;16.85;100.00;99053.22;5061230;28;20032;-86
2023/08/29 06:12:16;;;;;;;0.00;0.00;;;;;;;16.98;100.00;99054.09;5058001;28;20900;-86
2023/08/29 06:14:41;;;;;;;0.30;0.00;;;;;;;16.78;100.00;99052.50;5062969;28;20039;-86
2023/08/29 06:17:07;;;;;;;0.00;0.00;;;;;;;16.89;100.00;99053.59;5071494;28;20044;-86
2023/08/29 06:19:32;;;;;;;0.00;0.00;;;;;;;17.06;100.00;99051.97;5052972;28;20786;-86
2023/08/29 06:21:58;;;;;;;0.08;0.00;;;;;;;17.20;100.00;99053.41;5051240;28;20039;-86
2023/08/29 06:24:23;;;;;;;0.03;0.00;;;;;;;17.22;100.00;99059.25;5055424;28;20106;-87
2023/08/29 06:26:49;;;;;;;0.15;0.00;;;;;;;17.18;100.00;99057.28;5058065;28;20044;-86
2023/08/29 06:29:17;;;;;;;0.52;0.00;;;;;;;17.16;100.00;99056.72;5052455;28;20477;-87
2023/08/29 06:31:42;;;;;;;0.00;0.00;;;;;;;17.20;100.00;99065.78;5054502;28;20081;-86
2023/08/29 06:34:08;;;;;;;0.00;0.00;;;;;;;17.23;100.00;99057.44;5066633;28;20040;-87
2023/08/29 06:36:33;;;;;;;0.08;0.00;;;;;;;17.32;100.00;99063.19;5069299;28;20037;-86
2023/08/29 06:39:00;;;;;;;0.00;0.00;;;;;;;17.37;100.00;99053.63;5055087;28;20032;-88
2023/08/29 06:41:26;;;;;;;0.10;0.00;;;;;;;17.36;100.00;99061.75;5055121;28;20178;-87
2023/08/29 06:43:51;;;;;;;0.20;0.00;;;;;;;17.32;100.00;99069.28;5058327;28;20059;-86
2023/08/29 06:46:17;;;;;;;0.10;0.00;;;;;;;17.34;100.00;99064.59;5072516;28;20029;-87
2023/08/29 06:48:42;;;;;;;0.00;0.00;;;;;;;17.42;100.00;99061.66;5050373;28;20059;-87
2023/08/29 06:51:09;;;;;;;0.00;0.00;;;;;;;17.53;100.00;99074.03;5051818;28;20036;-87
2023/08/29 06:53:34;;;;;;;0.10;0.00;;;;;;;17.62;100.00;99071.09;5052056;28;20455;-87
2023/08/29 06:56:00;;;;;;;0.03;0.00;;;;;;;17.59;100.00;99067.88;5052317;28;20033;-87
2023/08/29 06:58:25;;;;;;;0.20;0.00;;;;;;;17.49;100.00;99057.06;5058540;28;20033;-86
2023/08/29 07:00:52;;;;;;;0.00;0.00;;;;;;;17.32;100.00;99061.38;5057164;28;20032;-85
2023/08/29 07:03:18;;;;;;;0.00;0.00;;;;;;;17.40;100.00;99060.28;5054342;28;20029;-87
2023/08/29 07:05:43;;;;;;;0.00;0.00;;;;;;;17.56;100.00;99054.34;5050396;28;20451;-86
2023/08/29 07:08:09;;;;;;;0.17;0.00;;;;;;;17.70;100.00;99057.66;5051892;28;20036;-87
2023/08/29 07:10:35;;;;;;;0.00;0.00;;;;;;;17.83;100.00;99058.25;5065452;28;20028;-87
2023/08/29 07:13:00;;;;;;;0.00;0.00;;;;;;;17.79;100.00;99056.31;5077714;28;20378;-86
2023/08/29 07:15:26;;;;;;;0.00;0.00;;;;;;;17.71;100.00;99052.16;5069005;28;20027;-87
2023/08/29 07:17:53;;;;;;;0.00;0.00;;;;;;;17.83;100.00;99065.38;5065504;28;20028;-87
2023/08/29 07:20:19;;;;;;;0.10;0.10;;;;;;;17.78;100.00;99067.88;5068862;28;20068;-86
2023/08/29 07:22:45;;;;;;;0.08;0.00;;;;;;;17.89;100.00;99064.47;5067842;28;20036;-87
2023/08/29 07:25:11;;;;;;;0.00;0.00;;;;;;;18.05;100.00;99063.78;5069224;28;20032;-87
2023/08/29 07:27:37;;;;;;;0.13;0.00;;;;;;;18.06;100.00;99077.78;5059580;28;20025;-87
2023/08/29 07:30:03;;;;;;;0.30;0.00;;;;;;;18.07;100.00;99089.91;5065535;28;20028;-86
2023/08/29 07:32:30;;;;;;;0.00;0.00;;;;;;;18.19;100.00;99098.66;5066249;28;20029;-87
2023/08/29 07:34:56;;;;;;;0.08;0.00;;;;;;;18.27;100.00;99094.91;5060243;28;20475;-87
2023/08/29 07:37:21;;;;;;;0.10;0.00;;;;;;;18.35;100.00;99103.28;5070213;28;20036;-86
2023/08/29 07:39:47;;;;;;;0.20;0.03;;;;;;;18.43;100.00;99104.78;5064452;28;20089;-87
2023/08/29 07:42:12;;;;;;;0.00;0.00;;;;;;;18.50;100.00;99116.81;5079152;28;20035;-86
2023/08/29 07:44:38;;;;;;;0.00;0.00;;;;;;;18.55;100.00;99113.47;5066260;28;20047;-87
2023/08/29 07:47:04;;;;;;;0.00;0.00;;;;;;;18.64;100.00;99117.41;5062441;28;20032;-86
2023/08/29 07:49:29;;;;;;;0.17;0.00;;;;;;;18.79;100.00;99119.59;5064494;28;20108;-86
2023/08/29 07:51:55;;;;;;;0.17;0.00;;;;;;;18.70;100.00;99120.97;5063672;28;20552;-87
2023/08/29 07:54:22;;;;;;;0.10;0.00;;;;;;;18.72;100.00;99125.00;5066646;28;20044;-86
2023/08/29 07:56:47;;;;;;;0.00;0.00;;;;;;;18.46;100.00;99125.38;5063991;28;20059;-87
2023/08/29 07:59:13;;;;;;;0.00;0.00;;;;;;;18.42;100.00;99124.28;5067842;28;20385;-87
2023/08/29 08:01:39;;;;;;;0.25;0.00;;;;;;;18.48;100.00;99128.59;5066585;28;20084;-85
2023/08/29 08:04:05;;;;;;;0.10;0.00;;;;;;;18.58;100.00;99131.50;5063562;28;20024;-85
2023/08/29 08:06:30;;;;;;;0.00;0.00;;;;;;;18.76;100.00;99118.22;5068182;28;20032;-85
2023/08/29 08:08:56;;;;;;;0.17;0.00;;;;;;;18.79;100.00;99115.13;5069094;28;20060;-86
2023/08/29 08:11:23;;;;;;;0.10;0.00;;;;;;;18.74;100.00;99106.28;5065144;28;20055;-85
2023/08/29 08:13:49;;;;;;;0.00;0.00;;;;;;;18.73;100.00;99115.25;5061822;28;20041;-86
2023/08/29 08:16:14;;;;;;;1.05;0.00;;;;;;;18.78;100.00;99115.34;5062936;28;20075;-86
2023/08/29 08:18:39;;;;;;;0.03;0.00;;;;;;;18.78;100.00;99107.44;5066345;28;20078;-89
2023/08/29 08:21:05;;;;;;;0.00;0.00;;;;;;;18.88;100.00;99113.75;5068481;28;20034;-91
2023/08/29 08:23:30;;;;;;;0.00;0.00;;;;;;;18.89;100.00;99118.00;5065791;28;20033;-90
2023/08/29 08:25:56;;;;;;;0.10;0.00;;;;;;;18.70;100.00;99111.22;5065817;28;20036;-88
2023/08/29 08:28:22;;;;;;;0.05;0.00;;;;;;;18.73;100.00;99121.31;5077731;28;20024;-89
2023/08/29 08:30:48;;;;;;;0.63;0.00;;;;;;;18.83;100.00;99115.47;5057483;28;20025;-91
2023/08/29 08:33:13;;;;;;;0.10;0.00;;;;;;;19.09;100.00;99120.25;5068017;28;20039;-90
2023/08/29 08:35:39;;;;;;;0.20;0.10;;;;;;;19.02;100.00;99121.41;5066514;28;20040;-91
2023/08/29 08:38:07;;;;;;;0.10;0.00;;;;;;;18.99;100.00;99120.03;5063108;28;20082;-92
2023/08/29 08:40:34;;;;;;;0.22;0.00;;;;;;;18.91;100.00;99120.38;5065119;28;20035;-92
2023/08/29 08:43:03;;;;;;;0.10;0.00;;;;;;;18.89;100.00;99120.63;5062833;28;20931;-89
2023/08/29 08:45:29;;;;;;;0.20;0.00;;;;;;;19.02;100.00;99118.75;5065002;28;20090;-91
2023/08/29 08:47:55;;;;;;;0.20;0.10;;;;;;;19.13;100.00;99116.09;5071419;28;20548;-91
2023/08/29 08:50:21;;;;;;;0.13;0.00;;;;;;;19.07;100.00;99118.88;5072044;28;20039;-93
2023/08/29 08:52:47;;;;;;;0.00;0.00;;;;;;;19.07;100.00;99122.31;5079528;28;20040;-89
2023/08/29 08:55:12;;;;;;;0.10;0.00;;;;;;;19.04;100.00;99128.06;5061202;28;20028;-90
2023/08/29 08:57:38;;;;;;;0.40;0.00;;;;;;;18.97;100.00;99129.22;5055177;28;20040;-90
2023/08/29 09:00:07;;;;;;;0.00;0.00;;;;;;;18.78;100.00;99129.34;5053207;28;20462;-90
2023/08/29 09:02:35;;;;;;;0.40;0.00;;;;;;;18.54;100.00;99138.25;5052465;28;20040;-90
2023/08/29 09:05:01;;;;;;;0.10;0.00;;;;;;;18.67;100.00;99147.81;5054802;28;20044;-90
2023/08/29 09:07:26;;;;;;;0.00;0.00;;;;;;;18.67;100.00;99147.81;5064023;28;20504;-91
2023/08/29 09:10:10;;;;;;;0.03;0.00;;;;;;;18.50;100.00;99159.00;5061523;28;20024;-92
2023/08/29 09:12:44;;;;;;;0.20;0.10;;;;;;;18.40;100.00;99169.31;5072568;28;20079;-90
2023/08/29 09:15:10;;;;;;;0.17;0.00;;;;;;;18.48;100.00;99181.34;5071994;28;20127;-89
2023/08/29 09:17:35;;;;;;;0.00;0.00;;;;;;;18.17;100.00;99185.06;5080084;28;20557;-86
2023/08/29 09:20:05;;;;;;;0.00;0.00;;;;;;;17.51;100.00;99194.59;5055330;28;20460;-87
2023/08/29 09:22:31;;;;;;;0.00;0.00;;;;;;;17.12;100.00;99197.63;5062962;28;20119;-86
2023/08/29 09:25:03;;;;;;;0.00;0.00;;;;;;;16.98;100.00;99183.03;5058703;28;20562;-86
2023/08/29 09:27:28;;;;;;;0.08;0.08;;;;;;;16.97;100.00;99182.22;5064961;28;20040;-84
2023/08/29 09:30:06;;;;;;;0.00;0.00;;;;;;;16.96;100.00;99172.72;5052930;28;20032;-86
2023/08/29 09:32:32;;;;;;;0.00;0.00;;;;;;;17.02;100.00;99179.72;5061450;28;20123;-86
2023/08/29 09:34:58;;;;;;;0.10;0.00;;;;;;;17.05;100.00;99186.38;5050330;28;21177;-86
2023/08/29 09:37:24;;;;;;;0.08;0.00;;;;;;;17.07;100.00;99189.59;5069814;28;20028;-87
2023/08/29 09:39:53;;;;;;;0.00;0.00;;;;;;;17.14;100.00;99195.59;5067052;28;20036;-87
2023/08/29 09:42:21;;;;;;;0.00;0.00;;;;;;;17.25;100.00;99192.25;5069188;28;20028;-86
2023/08/29 09:44:49;;;;;;;0.00;0.00;;;;;;;17.43;100.00;99186.19;5065888;28;20107;-88
2023/08/29 09:47:23;;;;;;;0.00;0.00;;;;;;;17.46;100.00;99181.31;5067982;28;20033;-88
2023/08/29 09:49:48;;;;;;;0.00;0.00;;;;;;;17.44;100.00;99175.44;5068150;28;20037;-87
2023/08/29 09:52:15;;;;;;;0.45;0.00;;;;;;;17.53;100.00;99166.19;5069772;28;20055;-88
2023/08/29 09:54:47;;;;;;;0.00;0.00;;;;;;;17.48;100.00;99160.81;5072430;28;20362;-87
2023/08/29 09:57:14;;;;;;;0.00;0.00;;;;;;;17.49;100.00;99157.13;5070514;28;20037;-86
2023/08/29 09:59:42;;;;;;;0.47;0.00;;;;;;;17.51;100.00;99156.91;5069151;28;20119;-86
2023/08/29 10:02:13;;;;;;;0.10;0.00;;;;;;;17.57;100.00;99146.31;5067864;28;20085;-86
2023/08/29 10:04:44;;;;;;;0.00;0.00;;;;;;;17.64;100.00;99140.16;5083572;28;20024;-86
2023/08/29 10:07:14;;;;;;;0.00;0.00;;;;;;;17.67;100.00;99135.28;5066175;28;20111;-87
2023/08/29 10:09:44;;;;;;;0.32;0.00;;;;;;;17.76;100.00;99141.03;5068712;28;20029;-86
2023/08/29 10:12:11;;;;;;;0.20;0.00;;;;;;;17.96;100.00;99133.66;5065143;28;20032;-86
2023/08/29 10:14:38;;;;;;;0.00;0.00;;;;;;;18.17;100.00;99129.72;5065201;28;20029;-85
2023/08/29 10:17:05;;;;;;;0.00;0.00;;;;;;;18.33;100.00;99142.25;5062691;28;20080;-86
2023/08/29 10:19:32;;;;;;;0.00;0.00;;;;;;;18.56;100.00;99144.09;5069047;28;20531;-86
2023/08/29 10:22:00;;;;;;;0.03;0.00;;;;;;;18.65;100.00;99153.31;5069816;28;20029;-86
2023/08/29 10:24:26;;;;;;;0.10;0.00;;;;;;;18.68;100.00;99146.78;5062704;28;20043;-86
2023/08/29 10:26:52;;;;;;;0.00;0.00;;;;;;;18.81;100.00;99150.00;5064182;28;20123;-86
2023/08/29 10:29:18;;;;;;;0.00;0.00;;;;;;;19.09;100.00;99146.66;5060195;28;20190;-86
2023/08/29 10:31:45;;;;;;;0.00;0.00;;;;;;;19.38;100.00;99152.78;5064587;28;20036;-86
2023/08/29 10:34:13;;;;;;;0.17;0.00;;;;;;;19.48;100.00;99150.34;5065455;28;20122;-86
2023/08/29 10:36:39;;;;;;;0.00;0.00;;;;;;;19.64;100.00;99142.75;5063147;28;20725;-86
2023/08/29 10:39:09;;;;;;;0.00;0.00;;;;;;;19.75;100.00;99142.72;5067162;28;20020;-86
2023/08/29 10:41:48;;;;;;;0.00;0.00;;;;;;;19.73;100.00;99130.78;5071658;28;20036;-86
2023/08/29 10:44:28;;;;;;;0.00;0.00;;;;;;;19.80;100.00;99136.72;5064035;28;20390;-86
2023/08/29 10:46:54;;;;;;;0.10;0.00;;;;;;;19.83;100.00;99128.34;5069839;28;20032;-86
2023/08/29 10:49:23;;;;;;;0.00;0.00;;;;;;;19.87;100.00;99134.72;5066362;28;20067;-86
2023/08/29 10:52:08;;;;;;;0.10;0.00;;;;;;;19.87;100.00;99130.25;5065183;28;20151;-86
2023/08/29 10:54:33;;;;;;;0.00;0.00;;;;;;;19.88;100.00;99131.84;5064625;28;20151;-88
2023/08/29 10:57:00;;;;;;;0.00;0.00;;;;;;;19.96;100.00;99133.31;5061585;28;20119;-88
2023/08/29 10:59:31;;;;;;;0.00;0.00;;;;;;;19.94;100.00;99148.59;5066250;28;20056;-90
2023/08/29 11:02:23;;;;;;;0.00;0.00;;;;;;;19.97;100.00;99145.47;5063466;28;20115;-91
2023/08/29 11:05:04;;;;;;;0.10;0.00;;;;;;;19.93;100.00;99148.84;5062068;28;20044;-90
2023/08/29 11:07:30;;;;;;;0.00;0.00;;;;;;;19.88;100.00;99149.53;5064863;28;20437;-89
2023/08/29 11:10:16;;;;;;;0.00;0.00;;;;;;;19.82;100.00;99148.66;5063207;28;20032;-89
2023/08/29 11:13:06;;;;;;;0.00;0.00;;;;;;;19.84;100.00;99153.72;5062140;28;20025;-90
2023/08/29 11:15:49;;;;;;;0.08;0.00;;;;;;;19.95;100.00;99154.69;5063253;28;20477;-88
2023/08/29 11:18:24;;;;;;;0.13;0.00;;;;;;;19.99;100.00;99153.97;5062283;28;20064;-89
2023/08/29 11:20:50;;;;;;;0.00;0.00;;;;;;;19.99;100.00;99156.63;5063643;28;20039;-89
2023/08/29 11:23:16;;;;;;;0.00;0.00;;;;;;;19.96;100.00;99157.09;5066718;28;20036;-90